createdAt,value
2023-07-26T00:02:12.134Z,19.30
2023-07-26T00:05:14.936Z,19.32
2023-07-26T00:08:17.827Z,19.21
2023-07-26T00:11:20.559Z,19.23
2023-07-26T00:14:22.963Z,19.29
2023-07-26T00:17:25.722Z,19.25
2023-07-26T00:20:28.186Z,19.18
2023-07-26T00:23:31.741Z,19.16
2023-07-26T00:26:34.623Z,18.97
2023-07-26T00:29:37.611Z,19.02
2023-07-26T00:32:40.137Z,18.96
2023-07-26T00:35:44.226Z,19.02
2023-07-26T00:38:47.743Z,18.94
2023-07-26T00:41:50.494Z,18.88
2023-07-26T00:44:52.948Z,18.91
2023-07-26T00:47:57.270Z,18.81
2023-07-26T00:51:01.143Z,18.88
2023-07-26T00:54:05.199Z,18.85
2023-07-26T00:57:07.735Z,18.90
2023-07-26T01:00:11.720Z,18.87
2023-07-26T01:03:15.345Z,18.82
2023-07-26T01:07:03.204Z,18.83
2023-07-26T01:10:08.567Z,18.85
2023-07-26T01:14:04.225Z,18.81
2023-07-26T01:17:08.407Z,18.82
2023-07-26T01:20:11.618Z,18.70
2023-07-26T01:23:14.156Z,18.78
2023-07-26T01:26:16.917Z,18.68
2023-07-26T01:29:19.327Z,18.79
2023-07-26T01:32:25.271Z,18.73
2023-07-26T01:35:29.503Z,18.67
2023-07-26T01:38:33.007Z,18.47
2023-07-26T01:41:36.615Z,18.51
2023-07-26T01:44:40.144Z,18.58
2023-07-26T01:47:42.838Z,18.63
2023-07-26T01:50:45.591Z,18.67
2023-07-26T01:53:48.080Z,18.72
2023-07-26T01:56:52.406Z,18.66
2023-07-26T01:59:55.419Z,18.76
2023-07-26T02:02:58.108Z,18.73
2023-07-26T02:06:01.205Z,18.75
2023-07-26T02:09:03.776Z,18.80
2023-07-26T02:12:06.869Z,18.79
2023-07-26T02:15:09.721Z,18.82
2023-07-26T02:18:12.468Z,18.76
2023-07-26T02:21:14.925Z,18.77
2023-07-26T02:24:19.425Z,18.79
2023-07-26T02:27:21.961Z,18.89
2023-07-26T02:30:24.847Z,18.84
2023-07-26T02:33:27.335Z,18.77
2023-07-26T02:36:30.072Z,18.80
2023-07-26T02:39:32.530Z,18.94
2023-07-26T02:42:35.322Z,18.91
2023-07-26T02:45:37.811Z,18.91
2023-07-26T02:48:40.726Z,18.90
2023-07-26T02:51:43.182Z,18.93
2023-07-26T02:54:45.907Z,18.97
2023-07-26T02:57:48.362Z,19.03
2023-07-26T03:00:54.712Z,18.98
2023-07-26T03:03:58.128Z,18.96
2023-07-26T03:07:00.850Z,18.89
2023-07-26T03:10:03.849Z,18.95
2023-07-26T03:13:07.002Z,19.03
2023-07-26T03:16:09.589Z,19.04
2023-07-26T03:19:12.296Z,18.83
2023-07-26T03:22:14.689Z,18.87
2023-07-26T03:25:17.451Z,18.82
2023-07-26T03:28:19.936Z,18.86
2023-07-26T03:31:22.650Z,18.77
2023-07-26T03:34:26.049Z,18.85
2023-07-26T03:37:28.933Z,18.93
2023-07-26T03:40:31.470Z,18.93
2023-07-26T03:43:34.194Z,18.85
2023-07-26T03:46:36.695Z,18.95
2023-07-26T03:49:40.502Z,18.98
2023-07-26T03:52:42.967Z,18.97
2023-07-26T03:55:45.677Z,19.02
2023-07-26T03:58:49.105Z,18.98
2023-07-26T04:01:51.924Z,19.06
2023-07-26T04:04:54.737Z,19.03
2023-07-26T04:07:57.630Z,18.96
2023-07-26T04:11:04.095Z,19.05
2023-07-26T04:14:06.584Z,18.96
2023-07-26T04:17:09.409Z,19.07
2023-07-26T04:20:12.265Z,19.09
2023-07-26T04:23:14.962Z,18.97
2023-07-26T04:26:17.361Z,18.86
2023-07-26T04:29:20.578Z,18.88
2023-07-26T04:32:23.065Z,18.96
2023-07-26T04:35:25.774Z,18.99
2023-07-26T04:38:28.474Z,18.82
2023-07-26T04:41:31.187Z,19.11
2023-07-26T04:44:33.606Z,19.00
2023-07-26T04:47:36.472Z,18.85
2023-07-26T04:50:39.051Z,18.91
2023-07-26T04:53:41.789Z,19.00
2023-07-26T04:56:44.251Z,19.19
2023-07-26T04:59:46.936Z,19.16
2023-07-26T05:02:49.603Z,19.09
2023-07-26T05:05:52.957Z,19.11
2023-07-26T05:08:55.374Z,19.21
2023-07-26T05:11:58.134Z,19.17
2023-07-26T05:15:00.629Z,19.34
2023-07-26T05:18:03.637Z,19.34
2023-07-26T05:21:06.089Z,19.33
2023-07-26T05:24:08.796Z,19.58
2023-07-26T05:27:11.232Z,19.91
2023-07-26T05:30:16.316Z,20.09
2023-07-26T05:33:18.747Z,20.10
2023-07-26T05:36:21.492Z,20.20
2023-07-26T05:39:23.938Z,20.31
2023-07-26T05:42:26.633Z,20.11
2023-07-26T05:45:29.093Z,20.03
2023-07-26T05:48:31.939Z,19.95
2023-07-26T05:51:34.647Z,19.87
2023-07-26T05:54:37.794Z,19.75
2023-07-26T05:57:40.796Z,19.67
2023-07-26T06:00:43.497Z,19.57
2023-07-26T06:03:47.159Z,19.55
2023-07-26T06:06:49.921Z,19.54
2023-07-26T06:09:52.760Z,19.20
2023-07-26T06:12:55.196Z,19.28
2023-07-26T06:15:57.966Z,19.28
2023-07-26T06:19:00.567Z,19.18
2023-07-26T06:22:03.613Z,19.15
2023-07-26T06:25:06.320Z,19.14
2023-07-26T06:28:09.172Z,19.06
2023-07-26T06:31:12.077Z,19.05
2023-07-26T06:34:15.151Z,19.10
2023-07-26T06:37:17.639Z,19.10
2023-07-26T06:40:20.356Z,19.32
2023-07-26T06:43:22.813Z,19.38
2023-07-26T06:46:25.602Z,19.40
2023-07-26T06:49:28.121Z,19.28
2023-07-26T06:52:31.867Z,19.20
2023-07-26T06:55:35.130Z,19.10
2023-07-26T06:58:37.869Z,19.03
2023-07-26T07:01:40.642Z,18.93
2023-07-26T07:04:43.458Z,18.97
2023-07-26T07:07:45.931Z,18.99
2023-07-26T07:10:48.741Z,18.92
2023-07-26T07:13:51.305Z,18.90
2023-07-26T07:16:54.229Z,18.93
2023-07-26T07:19:56.725Z,18.82
2023-07-26T07:22:59.458Z,18.85
2023-07-26T07:26:01.904Z,18.76
2023-07-26T07:29:05.066Z,18.67
2023-07-26T07:32:20.981Z,18.67
2023-07-26T07:35:25.115Z,18.55
2023-07-26T07:38:27.604Z,18.52
2023-07-26T07:41:30.561Z,18.52
2023-07-26T07:44:33.267Z,18.45
2023-07-26T07:47:36.016Z,18.48
2023-07-26T07:50:38.470Z,18.45
2023-07-26T07:53:41.143Z,18.36
2023-07-26T07:56:44.268Z,18.28
2023-07-26T07:59:47.008Z,18.30
2023-07-26T08:02:49.480Z,18.24
2023-07-26T08:05:53.095Z,18.26
2023-07-26T08:08:55.506Z,18.28
2023-07-26T08:11:59.164Z,18.17
2023-07-26T08:15:01.628Z,18.18
2023-07-26T08:18:06.051Z,18.25
2023-07-26T08:21:11.755Z,18.25
2023-07-26T08:24:14.477Z,18.28
2023-07-26T08:27:17.160Z,18.35
2023-07-26T08:30:19.949Z,18.30
2023-07-26T08:33:22.368Z,18.48
2023-07-26T08:36:25.378Z,18.65
2023-07-26T08:39:35.587Z,18.65
2023-07-26T08:42:39.203Z,18.75
2023-07-26T08:45:45.189Z,18.75
2023-07-26T08:48:48.948Z,18.84
2023-07-26T08:51:51.727Z,18.92
2023-07-26T08:54:54.796Z,18.86
2023-07-26T08:57:58.506Z,18.74
2023-07-26T09:01:01.492Z,18.81
2023-07-26T09:04:04.969Z,18.79
2023-07-26T09:07:07.925Z,18.78
2023-07-26T09:10:10.633Z,18.67
2023-07-26T09:13:15.931Z,18.75
2023-07-26T09:16:20.583Z,18.81
2023-07-26T09:19:33.990Z,18.74
2023-07-26T09:22:36.510Z,18.90
2023-07-26T09:25:41.445Z,19.04
2023-07-26T09:28:53.754Z,19.27
2023-07-26T09:31:56.844Z,19.51
2023-07-26T09:35:01.509Z,19.50
2023-07-26T09:38:15.480Z,19.68
2023-07-26T09:41:26.919Z,20.02
2023-07-26T09:44:29.600Z,20.34
2023-07-26T09:47:41.295Z,20.82
2023-07-26T09:53:56.074Z,21.38
2023-07-26T09:56:59.819Z,21.28
2023-07-26T10:00:05.755Z,21.15
2023-07-26T10:03:10.371Z,21.08
2023-07-26T10:06:14.565Z,21.47
2023-07-26T10:09:17.886Z,21.72
2023-07-26T10:12:24.501Z,21.35
2023-07-26T10:15:31.526Z,20.80
2023-07-26T10:18:35.161Z,20.64
2023-07-26T10:21:38.340Z,20.56
2023-07-26T10:24:42.393Z,20.59
2023-07-26T10:27:46.155Z,20.70
2023-07-26T10:30:52.688Z,20.69
2023-07-26T10:33:56.338Z,20.70
2023-07-26T10:36:59.055Z,20.63
2023-07-26T10:40:27.016Z,20.47
2023-07-26T10:43:29.386Z,20.63
2023-07-26T10:46:50.681Z,20.65
2023-07-26T10:49:56.087Z,21.30
2023-07-26T10:52:58.827Z,21.82
2023-07-26T10:56:20.746Z,22.04
2023-07-26T10:59:28.248Z,22.08
2023-07-26T11:02:43.529Z,21.49
2023-07-26T11:05:56.611Z,21.11
2023-07-26T11:08:59.161Z,20.75
2023-07-26T11:12:13.507Z,20.61
2023-07-26T11:16:13.478Z,20.33
2023-07-26T11:18:44.283Z,20.53
2023-07-26T11:21:46.909Z,20.56
2023-07-26T11:24:50.385Z,20.69
2023-07-26T11:27:52.928Z,20.71
2023-07-26T11:30:57.432Z,20.69
2023-07-26T11:34:00.530Z,20.92
2023-07-26T11:37:13.615Z,20.89
2023-07-26T11:40:16.137Z,21.13
2023-07-26T11:43:18.934Z,21.15
2023-07-26T11:46:28.740Z,21.28
2023-07-26T11:49:33.902Z,21.06
2023-07-26T11:52:36.845Z,21.29
2023-07-26T11:55:41.937Z,21.34
2023-07-26T11:58:45.377Z,21.14
2023-07-26T12:01:49.094Z,21.15
2023-07-26T12:05:17.841Z,21.40
2023-07-26T12:08:21.635Z,21.43
2023-07-26T12:11:24.858Z,21.26
2023-07-26T12:14:32.523Z,21.16
2023-07-26T12:17:35.445Z,21.28
2023-07-26T12:21:01.625Z,21.18
2023-07-26T12:24:07.505Z,21.44
2023-07-26T12:27:11.056Z,21.43
2023-07-26T12:30:14.344Z,21.43
2023-07-26T12:33:16.843Z,21.36
2023-07-26T12:36:19.939Z,21.28
2023-07-26T12:39:23.138Z,21.30
2023-07-26T12:42:26.274Z,21.52
2023-07-26T12:45:28.838Z,22.28
2023-07-26T12:48:34.624Z,22.72
2023-07-26T12:51:39.513Z,22.26
2023-07-26T12:54:42.507Z,22.02
2023-07-26T12:57:45.077Z,22.16
2023-07-26T13:00:49.145Z,21.95
2023-07-26T13:03:51.678Z,21.62
2023-07-26T13:06:54.526Z,21.45
2023-07-26T13:09:56.987Z,21.15
2023-07-26T13:12:59.797Z,21.19
2023-07-26T13:16:02.613Z,21.31
2023-07-26T13:19:05.966Z,21.33
2023-07-26T13:22:08.566Z,21.07
2023-07-26T13:25:11.568Z,20.96
2023-07-26T13:28:14.038Z,20.81
2023-07-26T13:31:17.987Z,20.61
2023-07-26T13:34:20.866Z,20.98
2023-07-26T13:37:23.580Z,20.39
2023-07-26T13:40:26.967Z,20.55
2023-07-26T13:43:30.901Z,20.85
2023-07-26T13:46:35.497Z,21.24
2023-07-26T13:49:38.679Z,21.17
2023-07-26T13:52:41.082Z,20.77
2023-07-26T13:55:43.796Z,21.00
2023-07-26T13:58:48.998Z,20.97
2023-07-26T14:01:52.291Z,20.81
2023-07-26T14:04:55.122Z,21.31
2023-07-26T14:07:57.617Z,21.37
2023-07-26T14:11:00.551Z,20.98
2023-07-26T14:14:06.147Z,21.16
2023-07-26T14:17:08.963Z,21.12
2023-07-26T14:20:11.863Z,21.52
2023-07-26T14:23:14.873Z,21.50
2023-07-26T14:26:17.419Z,21.94
2023-07-26T14:29:20.213Z,21.95
2023-07-26T14:32:22.714Z,22.22
2023-07-26T14:35:25.516Z,22.12
2023-07-26T14:38:28.081Z,22.13
2023-07-26T14:41:30.806Z,22.45
2023-07-26T14:44:33.215Z,22.44
2023-07-26T14:47:36.019Z,21.93
2023-07-26T14:50:38.606Z,22.25
2023-07-26T14:53:41.364Z,22.50
2023-07-26T14:56:50.509Z,22.58
2023-07-26T14:59:56.439Z,22.64
2023-07-26T15:02:59.562Z,22.38
2023-07-26T15:06:02.446Z,22.46
2023-07-26T15:09:04.926Z,22.30
2023-07-26T15:12:08.465Z,22.39
2023-07-26T15:15:12.956Z,22.11
2023-07-26T15:18:15.709Z,21.96
2023-07-26T15:21:18.329Z,21.69
2023-07-26T15:24:21.372Z,21.59
2023-07-26T15:27:23.891Z,21.49
2023-07-26T15:30:28.261Z,21.39
2023-07-26T15:33:30.810Z,21.28
2023-07-26T15:36:33.609Z,21.30
2023-07-26T15:39:36.110Z,21.27
2023-07-26T15:42:39.592Z,21.18
2023-07-26T15:48:47.960Z,21.09
2023-07-26T15:51:51.074Z,21.01
2023-07-26T15:54:53.748Z,20.94
2023-07-26T15:57:56.276Z,20.90
2023-07-26T16:00:59.208Z,20.93
2023-07-26T16:04:02.019Z,20.93
2023-07-26T16:07:04.863Z,20.77
2023-07-26T16:10:08.098Z,20.70
2023-07-26T16:13:11.571Z,20.56
2023-07-26T16:22:42.457Z,20.46
2023-07-26T16:25:45.827Z,20.44
2023-07-26T16:28:48.541Z,20.39
2023-07-26T16:31:51.304Z,20.41
2023-07-26T16:34:54.052Z,20.31
2023-07-26T16:37:56.467Z,20.24
2023-07-26T16:40:59.160Z,20.22
2023-07-26T16:44:02.119Z,20.16
2023-07-26T16:47:09.275Z,20.07
2023-07-26T16:50:14.958Z,19.95
2023-07-26T16:53:17.859Z,19.99
2023-07-26T16:56:20.446Z,19.93
2023-07-26T16:59:23.212Z,19.83
2023-07-26T17:02:26.310Z,19.71
2023-07-26T17:05:29.248Z,19.67
2023-07-26T17:08:31.742Z,19.61
2023-07-26T17:11:34.605Z,19.52
2023-07-26T17:14:37.094Z,19.40
2023-07-26T17:17:39.969Z,19.40
2023-07-26T17:20:44.735Z,19.30
2023-07-26T17:23:47.767Z,19.28
2023-07-26T17:26:50.267Z,19.22
2023-07-26T17:29:53.118Z,19.10
2023-07-26T17:32:55.597Z,18.95
2023-07-26T17:35:58.682Z,18.97
2023-07-26T17:39:05.194Z,18.87
2023-07-26T17:42:08.226Z,18.76
2023-07-26T17:45:12.205Z,18.66
2023-07-26T17:48:15.501Z,18.58
2023-07-26T17:51:19.015Z,18.57
2023-07-26T17:54:22.832Z,18.51
2023-07-26T17:57:26.118Z,18.43
2023-07-26T18:00:28.916Z,18.37
2023-07-26T18:03:31.993Z,18.29
2023-07-26T18:06:34.483Z,18.19
2023-07-26T18:09:37.380Z,18.13
2023-07-26T18:12:39.787Z,18.01
2023-07-26T18:15:42.638Z,17.91
2023-07-26T18:18:45.143Z,17.85
2023-07-26T18:21:47.975Z,17.78
2023-07-26T18:24:50.958Z,17.77
2023-07-26T18:27:57.055Z,17.79
2023-07-26T18:31:06.004Z,17.71
2023-07-26T18:34:09.106Z,17.64
2023-07-26T18:37:14.235Z,17.58
2023-07-26T18:40:16.954Z,17.52
2023-07-26T18:43:22.748Z,17.50
2023-07-26T18:46:25.662Z,17.43
2023-07-26T18:49:28.753Z,17.38
2023-07-26T18:52:31.484Z,17.28
2023-07-26T18:55:40.784Z,17.23
2023-07-26T18:58:44.657Z,17.14
2023-07-26T19:01:48.456Z,17.10
2023-07-26T19:04:51.535Z,17.03
2023-07-26T19:07:54.046Z,17.04
2023-07-26T19:10:57.736Z,17.01
2023-07-26T19:14:00.669Z,16.95
2023-07-26T19:17:03.874Z,16.89
2023-07-26T19:20:08.411Z,16.79
2023-07-26T19:23:11.103Z,16.76
2023-07-26T19:26:16.234Z,16.74
2023-07-26T19:29:19.190Z,16.74
2023-07-26T19:32:21.858Z,16.72
2023-07-26T19:35:26.479Z,16.69
2023-07-26T19:38:32.153Z,16.65
2023-07-26T19:41:35.083Z,16.62
2023-07-26T19:44:37.596Z,16.65
2023-07-26T19:47:40.601Z,16.61
2023-07-26T19:50:43.124Z,16.55
2023-07-26T19:53:46.612Z,16.53
2023-07-26T19:56:49.190Z,16.49
2023-07-26T19:59:51.977Z,16.45
2023-07-26T20:02:54.537Z,16.42
2023-07-26T20:05:58.041Z,16.34
2023-07-26T20:09:00.496Z,16.31
2023-07-26T20:12:04.448Z,16.29
2023-07-26T20:15:08.463Z,16.26
2023-07-26T20:18:11.670Z,16.24
2023-07-26T20:21:14.299Z,16.21
2023-07-26T20:24:17.057Z,16.18
2023-07-26T20:27:19.586Z,16.16
2023-07-26T20:30:22.437Z,16.17
2023-07-26T20:33:24.959Z,16.18
2023-07-26T20:36:27.832Z,16.16
2023-07-26T20:39:30.314Z,16.12
2023-07-26T20:42:33.065Z,16.06
2023-07-26T20:45:36.457Z,16.01
2023-07-26T20:48:39.156Z,15.94
2023-07-26T20:51:41.591Z,15.89
2023-07-26T20:54:45.112Z,15.80
2023-07-26T20:57:47.647Z,15.76
2023-07-26T21:00:51.958Z,15.70
2023-07-26T21:03:54.580Z,15.66
2023-07-26T21:06:57.321Z,15.64
2023-07-26T21:09:59.837Z,15.55
2023-07-26T21:13:02.728Z,15.53
2023-07-26T21:16:05.487Z,15.58
2023-07-26T21:19:08.222Z,15.50
2023-07-26T21:22:11.162Z,15.49
2023-07-26T21:25:13.922Z,15.56
2023-07-26T21:28:18.413Z,15.58
2023-07-26T21:31:22.055Z,15.67
2023-07-26T21:34:25.196Z,15.74
2023-07-26T21:37:27.904Z,15.76
2023-07-26T21:40:30.369Z,15.72
2023-07-26T21:43:33.113Z,15.71
2023-07-26T21:46:35.885Z,15.71
2023-07-26T21:49:39.240Z,15.67
2023-07-26T21:52:41.718Z,15.60
2023-07-26T21:55:44.451Z,15.54
2023-07-26T21:58:46.870Z,15.46
2023-07-26T22:01:49.621Z,15.48
2023-07-26T22:04:52.765Z,15.43
2023-07-26T22:07:58.487Z,15.33
2023-07-26T22:11:06.826Z,15.40
2023-07-26T22:14:09.254Z,15.39
2023-07-26T22:17:12.066Z,15.39
2023-07-26T22:20:14.624Z,15.38
2023-07-26T22:23:17.372Z,15.37
2023-07-26T22:26:21.749Z,15.40
2023-07-26T22:29:24.761Z,15.36
2023-07-26T22:32:27.339Z,15.38
2023-07-26T22:35:30.052Z,15.33
2023-07-26T22:38:32.488Z,15.34
2023-07-26T22:41:35.296Z,15.29
2023-07-26T22:44:38.190Z,15.25
2023-07-26T22:47:41.268Z,15.20
2023-07-26T22:50:43.657Z,15.11
2023-07-26T22:53:49.646Z,15.10
2023-07-26T22:56:52.156Z,15.13
2023-07-26T22:59:54.892Z,15.15
2023-07-26T23:02:57.371Z,15.09
2023-07-26T23:06:01.643Z,15.13
2023-07-26T23:09:04.240Z,15.09
2023-07-26T23:12:07.655Z,15.10
2023-07-26T23:15:10.524Z,15.01
2023-07-26T23:18:13.201Z,15.00
2023-07-26T23:21:15.661Z,14.96
2023-07-26T23:24:18.530Z,14.95
2023-07-26T23:27:21.103Z,14.89
2023-07-26T23:30:23.776Z,14.89
2023-07-26T23:33:26.202Z,14.83
2023-07-26T23:36:28.985Z,14.82
2023-07-26T23:39:32.821Z,14.88
2023-07-26T23:42:35.544Z,14.89
2023-07-26T23:45:38.554Z,14.77
2023-07-26T23:48:41.392Z,14.76
2023-07-26T23:51:43.880Z,14.76
2023-07-26T23:54:46.674Z,14.78
2023-07-26T23:57:49.079Z,14.75
